sensor_id;sensor_type;location;lat;lon;timestamp;P1;durP1;ratioP1;P2;durP2;ratioP2
10535;SDS011;5316;49.538;8.352;2023-04-15T00:12:57;7.10;;;3.97;;
10535;SDS011;5316;49.538;8.352;2023-04-15T00:15:24;5.87;;;3.70;;
10535;SDS011;5316;49.538;8.352;2023-04-15T00:18:09;6.70;;;4.07;;
10535;SDS011;5316;49.538;8.352;2023-04-15T00:20:52;7.07;;;3.97;;
10535;SDS011;5316;49.538;8.352;2023-04-15T00:23:21;5.80;;;3.80;;
10535;SDS011;5316;49.538;8.352;2023-04-15T00:25:49;6.50;;;3.80;;
10535;SDS011;5316;49.538;8.352;2023-04-15T00:31:01;6.90;;;3.80;;
10535;SDS011;5316;49.538;8.352;2023-04-15T00:33:29;7.37;;;3.77;;
10535;SDS011;5316;49.538;8.352;2023-04-15T00:35:57;6.17;;;3.60;;
10535;SDS011;5316;49.538;8.352;2023-04-15T00:38:26;8.67;;;4.23;;
10535;SDS011;5316;49.538;8.352;2023-04-15T00:41:05;4.27;;;3.63;;
10535;SDS011;5316;49.538;8.352;2023-04-15T00:49:11;5.87;;;3.77;;
10535;SDS011;5316;49.538;8.352;2023-04-15T00:51:39;9.80;;;4.23;;
10535;SDS011;5316;49.538;8.352;2023-04-15T00:54:06;9.07;;;4.60;;
10535;SDS011;5316;49.538;8.352;2023-04-15T00:56:36;6.07;;;4.47;;
10535;SDS011;5316;49.538;8.352;2023-04-15T01:01:55;9.53;;;4.93;;
10535;SDS011;5316;49.538;8.352;2023-04-15T01:04:22;7.10;;;5.10;;
10535;SDS011;5316;49.538;8.352;2023-04-15T01:06:50;8.53;;;4.70;;
10535;SDS011;5316;49.538;8.352;2023-04-15T01:09:17;8.27;;;4.80;;
10535;SDS011;5316;49.538;8.352;2023-04-15T01:11:45;8.20;;;3.80;;
10535;SDS011;5316;49.538;8.352;2023-04-15T01:14:13;6.90;;;3.53;;
10535;SDS011;5316;49.538;8.352;2023-04-15T01:16:41;7.70;;;4.03;;
10535;SDS011;5316;49.538;8.352;2023-04-15T01:19:09;5.93;;;4.10;;
10535;SDS011;5316;49.538;8.352;2023-04-15T01:21:36;8.03;;;4.73;;
10535;SDS011;5316;49.538;8.352;2023-04-15T01:24:04;8.50;;;4.23;;
10535;SDS011;5316;49.538;8.352;2023-04-15T01:26:36;8.80;;;5.13;;
10535;SDS011;5316;49.538;8.352;2023-04-15T01:29:03;7.90;;;3.80;;
10535;SDS011;5316;49.538;8.352;2023-04-15T01:31:30;5.73;;;4.00;;
10535;SDS011;5316;49.538;8.352;2023-04-15T01:33:58;6.97;;;3.40;;
10535;SDS011;5316;49.538;8.352;2023-04-15T01:36:25;16.40;;;8.23;;
10535;SDS011;5316;49.538;8.352;2023-04-15T01:38:52;5.73;;;3.67;;
10535;SDS011;5316;49.538;8.352;2023-04-15T01:41:20;7.17;;;4.20;;
10535;SDS011;5316;49.538;8.352;2023-04-15T01:43:50;5.63;;;3.03;;
10535;SDS011;5316;49.538;8.352;2023-04-15T01:46:17;5.00;;;3.30;;
10535;SDS011;5316;49.538;8.352;2023-04-15T01:48:44;6.57;;;3.83;;
10535;SDS011;5316;49.538;8.352;2023-04-15T01:51:11;6.60;;;3.57;;
10535;SDS011;5316;49.538;8.352;2023-04-15T01:53:38;6.10;;;3.93;;
10535;SDS011;5316;49.538;8.352;2023-04-15T01:56:05;7.10;;;3.37;;
10535;SDS011;5316;49.538;8.352;2023-04-15T01:58:33;6.03;;;3.87;;
10535;SDS011;5316;49.538;8.352;2023-04-15T02:01:01;9.20;;;4.40;;
10535;SDS011;5316;49.538;8.352;2023-04-15T02:03:28;5.50;;;4.10;;
10535;SDS011;5316;49.538;8.352;2023-04-15T02:05:55;4.97;;;3.80;;
10535;SDS011;5316;49.538;8.352;2023-04-15T02:08:22;5.83;;;3.67;;
10535;SDS011;5316;49.538;8.352;2023-04-15T02:10:49;8.20;;;4.00;;
10535;SDS011;5316;49.538;8.352;2023-04-15T02:13:16;7.90;;;3.80;;
10535;SDS011;5316;49.538;8.352;2023-04-15T02:15:46;6.37;;;4.53;;
10535;SDS011;5316;49.538;8.352;2023-04-15T02:18:15;7.70;;;3.77;;
10535;SDS011;5316;49.538;8.352;2023-04-15T02:20:41;8.30;;;4.00;;
10535;SDS011;5316;49.538;8.352;2023-04-15T02:23:09;7.73;;;4.30;;
10535;SDS011;5316;49.538;8.352;2023-04-15T02:25:36;6.23;;;4.00;;
10535;SDS011;5316;49.538;8.352;2023-04-15T02:28:04;7.13;;;3.60;;
10535;SDS011;5316;49.538;8.352;2023-04-15T02:30:31;5.70;;;3.80;;
10535;SDS011;5316;49.538;8.352;2023-04-15T02:32:58;5.33;;;4.13;;
10535;SDS011;5316;49.538;8.352;2023-04-15T02:35:27;7.10;;;3.70;;
10535;SDS011;5316;49.538;8.352;2023-04-15T02:37:54;5.60;;;3.33;;
10535;SDS011;5316;49.538;8.352;2023-04-15T02:40:20;7.13;;;3.30;;
10535;SDS011;5316;49.538;8.352;2023-04-15T02:42:47;5.00;;;3.57;;
10535;SDS011;5316;49.538;8.352;2023-04-15T02:45:14;7.50;;;3.57;;
10535;SDS011;5316;49.538;8.352;2023-04-15T02:47:43;5.27;;;3.17;;
10535;SDS011;5316;49.538;8.352;2023-04-15T02:50:11;6.40;;;3.97;;
10535;SDS011;5316;49.538;8.352;2023-04-15T02:52:41;5.20;;;3.53;;
10535;SDS011;5316;49.538;8.352;2023-04-15T02:55:08;4.83;;;3.73;;
10535;SDS011;5316;49.538;8.352;2023-04-15T02:57:36;7.87;;;4.07;;
10535;SDS011;5316;49.538;8.352;2023-04-15T03:00:03;7.17;;;3.63;;
10535;SDS011;5316;49.538;8.352;2023-04-15T03:02:33;5.40;;;3.43;;
10535;SDS011;5316;49.538;8.352;2023-04-15T03:05:01;8.30;;;3.83;;
10535;SDS011;5316;49.538;8.352;2023-04-15T03:07:28;9.13;;;3.80;;
10535;SDS011;5316;49.538;8.352;2023-04-15T03:09:57;5.50;;;3.60;;
10535;SDS011;5316;49.538;8.352;2023-04-15T03:12:23;7.57;;;3.60;;
10535;SDS011;5316;49.538;8.352;2023-04-15T03:14:50;5.63;;;3.70;;
10535;SDS011;5316;49.538;8.352;2023-04-15T03:17:17;4.23;;;3.50;;
10535;SDS011;5316;49.538;8.352;2023-04-15T03:19:44;5.07;;;4.07;;
10535;SDS011;5316;49.538;8.352;2023-04-15T03:22:11;4.83;;;3.60;;
10535;SDS011;5316;49.538;8.352;2023-04-15T03:24:37;8.80;;;3.93;;
10535;SDS011;5316;49.538;8.352;2023-04-15T03:27:06;9.07;;;3.80;;
10535;SDS011;5316;49.538;8.352;2023-04-15T03:29:33;5.90;;;4.10;;
10535;SDS011;5316;49.538;8.352;2023-04-15T03:32:00;5.60;;;3.90;;
10535;SDS011;5316;49.538;8.352;2023-04-15T03:34:27;8.27;;;4.10;;
10535;SDS011;5316;49.538;8.352;2023-04-15T03:36:54;7.27;;;4.43;;
10535;SDS011;5316;49.538;8.352;2023-04-15T03:39:21;9.17;;;4.70;;
10535;SDS011;5316;49.538;8.352;2023-04-15T03:41:48;6.63;;;4.30;;
10535;SDS011;5316;49.538;8.352;2023-04-15T03:44:16;6.57;;;4.07;;
10535;SDS011;5316;49.538;8.352;2023-04-15T03:46:43;6.93;;;4.40;;
10535;SDS011;5316;49.538;8.352;2023-04-15T03:49:10;6.13;;;4.57;;
10535;SDS011;5316;49.538;8.352;2023-04-15T03:51:39;8.40;;;4.57;;
10535;SDS011;5316;49.538;8.352;2023-04-15T03:54:05;6.67;;;4.33;;
10535;SDS011;5316;49.538;8.352;2023-04-15T03:56:32;9.90;;;4.70;;
10535;SDS011;5316;49.538;8.352;2023-04-15T03:58:59;6.90;;;4.23;;
10535;SDS011;5316;49.538;8.352;2023-04-15T04:01:27;6.10;;;4.20;;
10535;SDS011;5316;49.538;8.352;2023-04-15T04:03:54;7.53;;;4.53;;
10535;SDS011;5316;49.538;8.352;2023-04-15T04:06:21;8.90;;;4.37;;
10535;SDS011;5316;49.538;8.352;2023-04-15T04:08:48;9.30;;;4.97;;
10535;SDS011;5316;49.538;8.352;2023-04-15T04:11:15;7.47;;;4.37;;
10535;SDS011;5316;49.538;8.352;2023-04-15T04:13:42;7.80;;;4.47;;
10535;SDS011;5316;49.538;8.352;2023-04-15T04:16:09;8.77;;;4.33;;
10535;SDS011;5316;49.538;8.352;2023-04-15T04:18:37;6.67;;;4.03;;
10535;SDS011;5316;49.538;8.352;2023-04-15T04:21:04;6.83;;;4.23;;
10535;SDS011;5316;49.538;8.352;2023-04-15T04:23:31;7.23;;;4.13;;
10535;SDS011;5316;49.538;8.352;2023-04-15T04:25:58;8.07;;;4.30;;
10535;SDS011;5316;49.538;8.352;2023-04-15T04:28:26;7.47;;;4.80;;
10535;SDS011;5316;49.538;8.352;2023-04-15T04:30:53;8.50;;;4.73;;
10535;SDS011;5316;49.538;8.352;2023-04-15T04:33:19;8.90;;;4.53;;
10535;SDS011;5316;49.538;8.352;2023-04-15T04:35:48;9.10;;;4.67;;
10535;SDS011;5316;49.538;8.352;2023-04-15T04:38:14;6.77;;;4.10;;
10535;SDS011;5316;49.538;8.352;2023-04-15T04:40:41;8.10;;;4.40;;
10535;SDS011;5316;49.538;8.352;2023-04-15T04:43:08;7.93;;;4.47;;
10535;SDS011;5316;49.538;8.352;2023-04-15T04:45:35;9.73;;;5.00;;
10535;SDS011;5316;49.538;8.352;2023-04-15T04:48:02;7.93;;;4.20;;
10535;SDS011;5316;49.538;8.352;2023-04-15T04:50:31;7.90;;;4.67;;
10535;SDS011;5316;49.538;8.352;2023-04-15T04:52:59;9.47;;;4.90;;
10535;SDS011;5316;49.538;8.352;2023-04-15T04:55:26;7.80;;;3.80;;
10535;SDS011;5316;49.538;8.352;2023-04-15T04:57:54;6.63;;;4.13;;
10535;SDS011;5316;49.538;8.352;2023-04-15T05:00:21;8.50;;;4.47;;
10535;SDS011;5316;49.538;8.352;2023-04-15T05:02:48;8.97;;;4.50;;
10535;SDS011;5316;49.538;8.352;2023-04-15T05:05:15;8.03;;;4.03;;
10535;SDS011;5316;49.538;8.352;2023-04-15T05:07:42;7.13;;;4.83;;
10535;SDS011;5316;49.538;8.352;2023-04-15T05:10:11;6.67;;;4.40;;
10535;SDS011;5316;49.538;8.352;2023-04-15T05:12:39;8.27;;;4.60;;
10535;SDS011;5316;49.538;8.352;2023-04-15T05:15:06;7.47;;;4.60;;
10535;SDS011;5316;49.538;8.352;2023-04-15T05:17:34;9.77;;;5.03;;
10535;SDS011;5316;49.538;8.352;2023-04-15T05:20:01;9.10;;;4.47;;
10535;SDS011;5316;49.538;8.352;2023-04-15T05:22:28;7.90;;;5.30;;
10535;SDS011;5316;49.538;8.352;2023-04-15T05:24:55;11.20;;;4.77;;
10535;SDS011;5316;49.538;8.352;2023-04-15T05:27:23;9.33;;;4.53;;
10535;SDS011;5316;49.538;8.352;2023-04-15T05:29:50;7.07;;;4.93;;
10535;SDS011;5316;49.538;8.352;2023-04-15T05:32:17;7.80;;;4.47;;
10535;SDS011;5316;49.538;8.352;2023-04-15T05:34:44;11.10;;;5.30;;
10535;SDS011;5316;49.538;8.352;2023-04-15T05:37:11;9.60;;;4.67;;
10535;SDS011;5316;49.538;8.352;2023-04-15T05:39:39;11.60;;;6.37;;
10535;SDS011;5316;49.538;8.352;2023-04-15T05:42:06;9.33;;;4.43;;
10535;SDS011;5316;49.538;8.352;2023-04-15T05:44:34;7.80;;;4.77;;
10535;SDS011;5316;49.538;8.352;2023-04-15T05:47:01;9.03;;;4.47;;
10535;SDS011;5316;49.538;8.352;2023-04-15T05:49:32;9.93;;;5.03;;
10535;SDS011;5316;49.538;8.352;2023-04-15T05:52:04;8.97;;;4.73;;
10535;SDS011;5316;49.538;8.352;2023-04-15T05:54:31;7.03;;;4.50;;
10535;SDS011;5316;49.538;8.352;2023-04-15T05:56:58;4.50;;;3.97;;
10535;SDS011;5316;49.538;8.352;2023-04-15T05:59:25;24.07;;;11.23;;
10535;SDS011;5316;49.538;8.352;2023-04-15T06:01:54;11.43;;;6.47;;
10535;SDS011;5316;49.538;8.352;2023-04-15T06:04:22;9.03;;;5.40;;
10535;SDS011;5316;49.538;8.352;2023-04-15T06:06:49;8.97;;;5.20;;
10535;SDS011;5316;49.538;8.352;2023-04-15T06:09:16;10.10;;;5.77;;
10535;SDS011;5316;49.538;8.352;2023-04-15T06:11:43;9.03;;;4.50;;
10535;SDS011;5316;49.538;8.352;2023-04-15T06:14:10;9.23;;;5.23;;
10535;SDS011;5316;49.538;8.352;2023-04-15T06:16:36;6.73;;;3.90;;
10535;SDS011;5316;49.538;8.352;2023-04-15T06:19:05;7.47;;;4.50;;
10535;SDS011;5316;49.538;8.352;2023-04-15T06:21:32;5.73;;;3.80;;
10535;SDS011;5316;49.538;8.352;2023-04-15T06:23:58;9.83;;;4.67;;
10535;SDS011;5316;49.538;8.352;2023-04-15T06:26:26;8.30;;;5.10;;
10535;SDS011;5316;49.538;8.352;2023-04-15T06:28:53;7.47;;;4.07;;
10535;SDS011;5316;49.538;8.352;2023-04-15T06:31:21;6.27;;;3.93;;
10535;SDS011;5316;49.538;8.352;2023-04-15T06:33:47;5.50;;;4.20;;
10535;SDS011;5316;49.538;8.352;2023-04-15T06:36:16;6.00;;;3.90;;
10535;SDS011;5316;49.538;8.352;2023-04-15T06:38:42;7.97;;;4.40;;
10535;SDS011;5316;49.538;8.352;2023-04-15T06:41:09;6.17;;;3.70;;
10535;SDS011;5316;49.538;8.352;2023-04-15T06:43:36;5.93;;;3.90;;
10535;SDS011;5316;49.538;8.352;2023-04-15T06:46:04;9.60;;;6.20;;
10535;SDS011;5316;49.538;8.352;2023-04-15T06:48:31;9.07;;;6.23;;
10535;SDS011;5316;49.538;8.352;2023-04-15T06:50:57;8.20;;;4.67;;
10535;SDS011;5316;49.538;8.352;2023-04-15T06:53:26;7.50;;;4.33;;
10535;SDS011;5316;49.538;8.352;2023-04-15T06:55:53;5.47;;;3.83;;
10535;SDS011;5316;49.538;8.352;2023-04-15T06:58:20;7.57;;;4.40;;
10535;SDS011;5316;49.538;8.352;2023-04-15T07:00:47;5.77;;;4.40;;
10535;SDS011;5316;49.538;8.352;2023-04-15T07:03:14;6.27;;;4.20;;
10535;SDS011;5316;49.538;8.352;2023-04-15T07:05:41;5.97;;;4.10;;
10535;SDS011;5316;49.538;8.352;2023-04-15T07:08:08;6.40;;;4.13;;
10535;SDS011;5316;49.538;8.352;2023-04-15T07:10:36;6.00;;;4.07;;
10535;SDS011;5316;49.538;8.352;2023-04-15T07:13:03;4.90;;;4.07;;
10535;SDS011;5316;49.538;8.352;2023-04-15T07:18:08;6.77;;;4.97;;
10535;SDS011;5316;49.538;8.352;2023-04-15T07:20:35;5.47;;;4.57;;
10535;SDS011;5316;49.538;8.352;2023-04-15T07:23:02;5.77;;;3.87;;
10535;SDS011;5316;49.538;8.352;2023-04-15T07:25:29;7.53;;;4.87;;
10535;SDS011;5316;49.538;8.352;2023-04-15T07:27:58;7.67;;;5.40;;
10535;SDS011;5316;49.538;8.352;2023-04-15T07:30:26;4.63;;;3.97;;
10535;SDS011;5316;49.538;8.352;2023-04-15T07:32:54;8.80;;;5.13;;
10535;SDS011;5316;49.538;8.352;2023-04-15T07:35:21;8.27;;;4.67;;
10535;SDS011;5316;49.538;8.352;2023-04-15T07:37:52;7.33;;;4.43;;
10535;SDS011;5316;49.538;8.352;2023-04-15T07:40:20;5.33;;;4.40;;
10535;SDS011;5316;49.538;8.352;2023-04-15T07:42:47;5.20;;;4.37;;
10535;SDS011;5316;49.538;8.352;2023-04-15T07:45:16;8.10;;;4.57;;
10535;SDS011;5316;49.538;8.352;2023-04-15T07:47:44;6.67;;;4.60;;
10535;SDS011;5316;49.538;8.352;2023-04-15T07:50:12;7.43;;;4.30;;
10535;SDS011;5316;49.538;8.352;2023-04-15T07:52:41;4.63;;;4.10;;
10535;SDS011;5316;49.538;8.352;2023-04-15T07:55:09;6.80;;;4.53;;
10535;SDS011;5316;49.538;8.352;2023-04-15T07:58:46;7.00;;;4.20;;
10535;SDS011;5316;49.538;8.352;2023-04-15T08:00:48;5.37;;;3.80;;
10535;SDS011;5316;49.538;8.352;2023-04-15T08:03:15;5.13;;;3.80;;
10535;SDS011;5316;49.538;8.352;2023-04-15T08:05:42;4.27;;;3.37;;
10535;SDS011;5316;49.538;8.352;2023-04-15T08:08:12;4.30;;;3.73;;
10535;SDS011;5316;49.538;8.352;2023-04-15T08:10:39;5.43;;;3.73;;
10535;SDS011;5316;49.538;8.352;2023-04-15T08:13:08;6.20;;;3.97;;
10535;SDS011;5316;49.538;8.352;2023-04-15T08:15:37;6.00;;;4.00;;
10535;SDS011;5316;49.538;8.352;2023-04-15T08:18:06;13.13;;;8.00;;
10535;SDS011;5316;49.538;8.352;2023-04-15T08:20:33;5.87;;;4.00;;
10535;SDS011;5316;49.538;8.352;2023-04-15T08:23:03;4.30;;;3.90;;
10535;SDS011;5316;49.538;8.352;2023-04-15T08:25:31;5.30;;;3.93;;
10535;SDS011;5316;49.538;8.352;2023-04-15T08:28:02;6.50;;;3.93;;
10535;SDS011;5316;49.538;8.352;2023-04-15T08:30:31;5.27;;;4.00;;
10535;SDS011;5316;49.538;8.352;2023-04-15T08:32:59;6.20;;;4.00;;
10535;SDS011;5316;49.538;8.352;2023-04-15T08:35:30;4.00;;;3.70;;
10535;SDS011;5316;49.538;8.352;2023-04-15T08:38:00;4.47;;;3.90;;
10535;SDS011;5316;49.538;8.352;2023-04-15T08:40:33;7.07;;;4.27;;
10535;SDS011;5316;49.538;8.352;2023-04-15T08:43:08;6.33;;;4.10;;
10535;SDS011;5316;49.538;8.352;2023-04-15T08:45:46;5.27;;;3.77;;
10535;SDS011;5316;49.538;8.352;2023-04-15T08:48:17;6.63;;;4.40;;
10535;SDS011;5316;49.538;8.352;2023-04-15T08:50:47;5.97;;;4.03;;
10535;SDS011;5316;49.538;8.352;2023-04-15T08:53:20;4.43;;;4.03;;
10535;SDS011;5316;49.538;8.352;2023-04-15T08:55:56;7.10;;;4.13;;
10535;SDS011;5316;49.538;8.352;2023-04-15T08:58:31;5.67;;;4.07;;
10535;SDS011;5316;49.538;8.352;2023-04-15T09:01:01;6.37;;;4.00;;
10535;SDS011;5316;49.538;8.352;2023-04-15T09:03:32;7.53;;;4.40;;
10535;SDS011;5316;49.538;8.352;2023-04-15T09:06:10;5.80;;;5.20;;
10535;SDS011;5316;49.538;8.352;2023-04-15T09:09:03;5.37;;;4.53;;
10535;SDS011;5316;49.538;8.352;2023-04-15T09:12:00;4.53;;;4.13;;
10535;SDS011;5316;49.538;8.352;2023-04-15T09:14:56;5.43;;;4.43;;
10535;SDS011;5316;49.538;8.352;2023-04-15T09:23:22;5.33;;;4.93;;
10535;SDS011;5316;49.538;8.352;2023-04-15T09:25:55;5.33;;;4.93;;
10535;SDS011;5316;49.538;8.352;2023-04-15T09:28:27;5.57;;;4.93;;
10535;SDS011;5316;49.538;8.352;2023-04-15T09:30:55;6.67;;;4.80;;
10535;SDS011;5316;49.538;8.352;2023-04-15T09:33:27;5.80;;;4.87;;
10535;SDS011;5316;49.538;8.352;2023-04-15T09:35:59;5.57;;;4.30;;
10535;SDS011;5316;49.538;8.352;2023-04-15T09:38:46;5.30;;;4.20;;
10535;SDS011;5316;49.538;8.352;2023-04-15T09:41:36;4.83;;;4.43;;
10535;SDS011;5316;49.538;8.352;2023-04-15T09:47:00;4.63;;;4.20;;
10535;SDS011;5316;49.538;8.352;2023-04-15T09:49:46;5.27;;;4.20;;
10535;SDS011;5316;49.538;8.352;2023-04-15T09:58:56;6.17;;;5.47;;
10535;SDS011;5316;49.538;8.352;2023-04-15T10:01:42;5.53;;;4.97;;
10535;SDS011;5316;49.538;8.352;2023-04-15T10:04:20;4.73;;;4.33;;
10535;SDS011;5316;49.538;8.352;2023-04-15T10:07:09;5.93;;;4.00;;
10535;SDS011;5316;49.538;8.352;2023-04-15T10:10:07;4.70;;;4.20;;
10535;SDS011;5316;49.538;8.352;2023-04-15T10:12:48;4.93;;;4.37;;
10535;SDS011;5316;49.538;8.352;2023-04-15T10:15:22;6.47;;;4.67;;
10535;SDS011;5316;49.538;8.352;2023-04-15T10:18:08;6.53;;;4.30;;
10535;SDS011;5316;49.538;8.352;2023-04-15T10:22:13;4.77;;;4.23;;
10535;SDS011;5316;49.538;8.352;2023-04-15T10:34:48;5.77;;;4.50;;
10535;SDS011;5316;49.538;8.352;2023-04-15T10:37:53;6.23;;;4.80;;
10535;SDS011;5316;49.538;8.352;2023-04-15T10:40:43;4.70;;;4.30;;
10535;SDS011;5316;49.538;8.352;2023-04-15T10:44:30;6.50;;;4.60;;
10535;SDS011;5316;49.538;8.352;2023-04-15T10:47:25;4.67;;;4.23;;
10535;SDS011;5316;49.538;8.352;2023-04-15T10:57:39;5.23;;;4.30;;
10535;SDS011;5316;49.538;8.352;2023-04-15T11:00:11;5.77;;;4.13;;
10535;SDS011;5316;49.538;8.352;2023-04-15T11:02:55;6.43;;;4.50;;
10535;SDS011;5316;49.538;8.352;2023-04-15T11:11:20;3.27;;;3.07;;
10535;SDS011;5316;49.538;8.352;2023-04-15T11:13:47;4.63;;;3.60;;
10535;SDS011;5316;49.538;8.352;2023-04-15T11:37:48;3.40;;;2.43;;
10535;SDS011;5316;49.538;8.352;2023-04-15T11:40:23;4.50;;;2.93;;
10535;SDS011;5316;49.538;8.352;2023-04-15T11:43:05;3.80;;;2.57;;
10535;SDS011;5316;49.538;8.352;2023-04-15T11:45:37;4.73;;;2.90;;
10535;SDS011;5316;49.538;8.352;2023-04-15T11:48:19;3.20;;;2.77;;
10535;SDS011;5316;49.538;8.352;2023-04-15T11:50:53;6.60;;;3.67;;
10535;SDS011;5316;49.538;8.352;2023-04-15T11:53:34;3.43;;;3.17;;
10535;SDS011;5316;49.538;8.352;2023-04-15T11:56:02;6.70;;;4.50;;
10535;SDS011;5316;49.538;8.352;2023-04-15T11:58:29;3.63;;;2.77;;
10535;SDS011;5316;49.538;8.352;2023-04-15T12:00:57;6.30;;;3.77;;
10535;SDS011;5316;49.538;8.352;2023-04-15T12:03:26;6.50;;;4.33;;
10535;SDS011;5316;49.538;8.352;2023-04-15T12:06:05;5.93;;;3.10;;
10535;SDS011;5316;49.538;8.352;2023-04-15T12:08:57;14.80;;;9.30;;
10535;SDS011;5316;49.538;8.352;2023-04-15T12:11:33;3.20;;;2.70;;
10535;SDS011;5316;49.538;8.352;2023-04-15T12:14:06;3.90;;;1.70;;
10535;SDS011;5316;49.538;8.352;2023-04-15T12:16:45;8.57;;;6.37;;
10535;SDS011;5316;49.538;8.352;2023-04-15T12:19:14;3.83;;;1.30;;
10535;SDS011;5316;49.538;8.352;2023-04-15T12:21:44;1.93;;;1.00;;
10535;SDS011;5316;49.538;8.352;2023-04-15T12:24:14;4.00;;;1.23;;
10535;SDS011;5316;49.538;8.352;2023-04-15T12:26:45;1.40;;;1.07;;
10535;SDS011;5316;49.538;8.352;2023-04-15T12:29:14;2.53;;;1.10;;
10535;SDS011;5316;49.538;8.352;2023-04-15T12:31:46;2.17;;;1.10;;
10535;SDS011;5316;49.538;8.352;2023-04-15T12:34:15;2.87;;;1.10;;
10535;SDS011;5316;49.538;8.352;2023-04-15T12:36:43;3.67;;;0.80;;
10535;SDS011;5316;49.538;8.352;2023-04-15T12:39:11;1.13;;;0.70;;
10535;SDS011;5316;49.538;8.352;2023-04-15T12:41:41;1.37;;;0.50;;
10535;SDS011;5316;49.538;8.352;2023-04-15T12:44:09;0.73;;;0.70;;
10535;SDS011;5316;49.538;8.352;2023-04-15T12:46:36;0.67;;;0.50;;
10535;SDS011;5316;49.538;8.352;2023-04-15T12:49:03;5.37;;;1.57;;
10535;SDS011;5316;49.538;8.352;2023-04-15T12:51:30;1.93;;;0.60;;
10535;SDS011;5316;49.538;8.352;2023-04-15T12:53:57;1.23;;;0.40;;
10535;SDS011;5316;49.538;8.352;2023-04-15T12:56:30;0.63;;;0.40;;
10535;SDS011;5316;49.538;8.352;2023-04-15T12:59:01;0.83;;;0.43;;
10535;SDS011;5316;49.538;8.352;2023-04-15T13:01:28;0.43;;;0.40;;
10535;SDS011;5316;49.538;8.352;2023-04-15T13:17:26;1.03;;;0.60;;
10535;SDS011;5316;49.538;8.352;2023-04-15T13:19:53;0.53;;;0.40;;
10535;SDS011;5316;49.538;8.352;2023-04-15T13:22:20;0.83;;;0.40;;
10535;SDS011;5316;49.538;8.352;2023-04-15T13:24:47;0.77;;;0.47;;
10535;SDS011;5316;49.538;8.352;2023-04-15T13:27:13;1.40;;;0.50;;
10535;SDS011;5316;49.538;8.352;2023-04-15T13:29:40;0.67;;;0.40;;
10535;SDS011;5316;49.538;8.352;2023-04-15T13:32:07;1.00;;;0.80;;
10535;SDS011;5316;49.538;8.352;2023-04-15T13:34:35;4.10;;;0.50;;
10535;SDS011;5316;49.538;8.352;2023-04-15T13:37:05;0.83;;;0.40;;
10535;SDS011;5316;49.538;8.352;2023-04-15T13:39:32;0.87;;;0.60;;
10535;SDS011;5316;49.538;8.352;2023-04-15T13:41:59;2.43;;;0.60;;
10535;SDS011;5316;49.538;8.352;2023-04-15T13:44:26;1.57;;;0.60;;
10535;SDS011;5316;49.538;8.352;2023-04-15T13:46:53;2.00;;;0.50;;
10535;SDS011;5316;49.538;8.352;2023-04-15T13:49:20;0.80;;;0.50;;
10535;SDS011;5316;49.538;8.352;2023-04-15T13:51:49;1.10;;;0.40;;
10535;SDS011;5316;49.538;8.352;2023-04-15T13:54:16;0.90;;;0.50;;
10535;SDS011;5316;49.538;8.352;2023-04-15T13:56:43;0.73;;;0.50;;
10535;SDS011;5316;49.538;8.352;2023-04-15T13:59:10;0.40;;;0.40;;
10535;SDS011;5316;49.538;8.352;2023-04-15T14:01:38;1.07;;;0.40;;
10535;SDS011;5316;49.538;8.352;2023-04-15T14:04:05;0.50;;;0.40;;
10535;SDS011;5316;49.538;8.352;2023-04-15T14:06:32;1.90;;;0.57;;
10535;SDS011;5316;49.538;8.352;2023-04-15T14:09:00;0.83;;;0.57;;
10535;SDS011;5316;49.538;8.352;2023-04-15T14:11:27;0.57;;;0.57;;
10535;SDS011;5316;49.538;8.352;2023-04-15T14:13:54;1.17;;;0.60;;
10535;SDS011;5316;49.538;8.352;2023-04-15T14:16:22;1.07;;;0.70;;
10535;SDS011;5316;49.538;8.352;2023-04-15T14:18:49;0.80;;;0.80;;
10535;SDS011;5316;49.538;8.352;2023-04-15T14:21:16;1.37;;;0.60;;
10535;SDS011;5316;49.538;8.352;2023-04-15T14:23:43;1.23;;;0.60;;
10535;SDS011;5316;49.538;8.352;2023-04-15T14:26:11;0.90;;;0.70;;
10535;SDS011;5316;49.538;8.352;2023-04-15T14:28:38;0.73;;;0.63;;
10535;SDS011;5316;49.538;8.352;2023-04-15T14:31:06;2.20;;;1.17;;
10535;SDS011;5316;49.538;8.352;2023-04-15T14:33:33;0.80;;;0.80;;
10535;SDS011;5316;49.538;8.352;2023-04-15T14:36:00;0.80;;;0.80;;
10535;SDS011;5316;49.538;8.352;2023-04-15T14:38:27;2.63;;;0.80;;
10535;SDS011;5316;49.538;8.352;2023-04-15T14:40:54;1.00;;;1.00;;
10535;SDS011;5316;49.538;8.352;2023-04-15T14:43:22;0.83;;;0.83;;
10535;SDS011;5316;49.538;8.352;2023-04-15T14:45:49;1.57;;;1.00;;
10535;SDS011;5316;49.538;8.352;2023-04-15T14:48:16;1.23;;;1.13;;
10535;SDS011;5316;49.538;8.352;2023-04-15T14:50:43;1.50;;;1.40;;
10535;SDS011;5316;49.538;8.352;2023-04-15T14:53:10;1.80;;;1.70;;
10535;SDS011;5316;49.538;8.352;2023-04-15T14:55:37;1.00;;;1.00;;
10535;SDS011;5316;49.538;8.352;2023-04-15T14:58:04;0.93;;;0.90;;
10535;SDS011;5316;49.538;8.352;2023-04-15T15:00:33;1.13;;;1.03;;
10535;SDS011;5316;49.538;8.352;2023-04-15T15:03:03;0.87;;;0.80;;
10535;SDS011;5316;49.538;8.352;2023-04-15T15:05:30;1.90;;;1.00;;
10535;SDS011;5316;49.538;8.352;2023-04-15T15:07:57;0.97;;;0.97;;
10535;SDS011;5316;49.538;8.352;2023-04-15T15:10:24;2.43;;;1.00;;
10535;SDS011;5316;49.538;8.352;2023-04-15T15:12:51;1.03;;;0.80;;
10535;SDS011;5316;49.538;8.352;2023-04-15T15:15:18;1.00;;;1.00;;
10535;SDS011;5316;49.538;8.352;2023-04-15T15:17:46;2.07;;;1.50;;
10535;SDS011;5316;49.538;8.352;2023-04-15T15:20:13;8.37;;;3.83;;
10535;SDS011;5316;49.538;8.352;2023-04-15T15:22:41;2.80;;;1.70;;
10535;SDS011;5316;49.538;8.352;2023-04-15T15:25:08;1.43;;;1.03;;
10535;SDS011;5316;49.538;8.352;2023-04-15T15:27:34;1.03;;;1.00;;
10535;SDS011;5316;49.538;8.352;2023-04-15T15:30:02;2.87;;;1.97;;
10535;SDS011;5316;49.538;8.352;2023-04-15T15:32:30;1.20;;;1.20;;
10535;SDS011;5316;49.538;8.352;2023-04-15T15:34:58;0.90;;;0.90;;
10535;SDS011;5316;49.538;8.352;2023-04-15T15:37:25;1.00;;;1.00;;
10535;SDS011;5316;49.538;8.352;2023-04-15T15:39:53;1.10;;;1.00;;
10535;SDS011;5316;49.538;8.352;2023-04-15T15:42:20;2.37;;;2.10;;
10535;SDS011;5316;49.538;8.352;2023-04-15T15:44:47;0.90;;;0.80;;
10535;SDS011;5316;49.538;8.352;2023-04-15T15:47:17;1.23;;;1.20;;
10535;SDS011;5316;49.538;8.352;2023-04-15T15:49:46;1.87;;;1.00;;
10535;SDS011;5316;49.538;8.352;2023-04-15T15:52:15;1.10;;;1.10;;
10535;SDS011;5316;49.538;8.352;2023-04-15T15:54:42;1.10;;;1.10;;
10535;SDS011;5316;49.538;8.352;2023-04-15T15:57:08;1.10;;;1.10;;
10535;SDS011;5316;49.538;8.352;2023-04-15T15:59:35;1.00;;;1.00;;
10535;SDS011;5316;49.538;8.352;2023-04-15T16:02:05;0.80;;;0.80;;
10535;SDS011;5316;49.538;8.352;2023-04-15T16:04:33;1.30;;;1.20;;
10535;SDS011;5316;49.538;8.352;2023-04-15T16:07:01;0.90;;;0.90;;
10535;SDS011;5316;49.538;8.352;2023-04-15T16:09:29;1.43;;;0.90;;
10535;SDS011;5316;49.538;8.352;2023-04-15T16:11:56;1.10;;;1.00;;
10535;SDS011;5316;49.538;8.352;2023-04-15T16:14:24;1.00;;;1.00;;
10535;SDS011;5316;49.538;8.352;2023-04-15T16:16:51;1.20;;;1.20;;
10535;SDS011;5316;49.538;8.352;2023-04-15T16:19:18;1.20;;;1.10;;
10535;SDS011;5316;49.538;8.352;2023-04-15T16:21:46;0.90;;;0.90;;
10535;SDS011;5316;49.538;8.352;2023-04-15T16:24:13;1.73;;;1.00;;
10535;SDS011;5316;49.538;8.352;2023-04-15T16:26:41;1.40;;;1.40;;
10535;SDS011;5316;49.538;8.352;2023-04-15T16:29:08;1.23;;;1.20;;
10535;SDS011;5316;49.538;8.352;2023-04-15T16:31:34;1.30;;;1.20;;
10535;SDS011;5316;49.538;8.352;2023-04-15T16:34:03;1.40;;;1.30;;
10535;SDS011;5316;49.538;8.352;2023-04-15T16:36:32;1.23;;;1.23;;
10535;SDS011;5316;49.538;8.352;2023-04-15T16:39:00;1.23;;;1.23;;
10535;SDS011;5316;49.538;8.352;2023-04-15T16:41:27;5.03;;;4.53;;
10535;SDS011;5316;49.538;8.352;2023-04-15T16:43:56;1.63;;;1.60;;
10535;SDS011;5316;49.538;8.352;2023-04-15T16:46:23;1.73;;;1.70;;
10535;SDS011;5316;49.538;8.352;2023-04-15T16:48:50;2.07;;;1.97;;
10535;SDS011;5316;49.538;8.352;2023-04-15T16:51:17;2.10;;;2.00;;
10535;SDS011;5316;49.538;8.352;2023-04-15T16:53:44;2.67;;;2.57;;
10535;SDS011;5316;49.538;8.352;2023-04-15T16:56:10;2.30;;;2.20;;